sensor_id;sensor_type;location;lat;lon;timestamp;P1;durP1;ratioP1;P2;durP2;ratioP2
22929;SDS011;11630;42.660;23.292;2022-09-20T00:00:01;1.47;;;1.47;;
22929;SDS011;11630;42.660;23.292;2022-09-20T00:02:32;1.70;;;1.60;;
22929;SDS011;11630;42.660;23.292;2022-09-20T00:05:03;2.07;;;1.97;;
22929;SDS011;11630;42.660;23.292;2022-09-20T00:07:35;2.10;;;1.90;;
22929;SDS011;11630;42.660;23.292;2022-09-20T00:10:05;2.30;;;2.10;;
22929;SDS011;11630;42.660;23.292;2022-09-20T00:12:36;2.77;;;2.03;;
22929;SDS011;11630;42.660;23.292;2022-09-20T00:15:12;2.00;;;1.90;;
22929;SDS011;11630;42.660;23.292;2022-09-20T00:17:43;2.00;;;1.90;;
22929;SDS011;11630;42.660;23.292;2022-09-20T00:20:14;1.83;;;1.73;;
22929;SDS011;11630;42.660;23.292;2022-09-20T00:22:45;2.00;;;1.90;;
22929;SDS011;11630;42.660;23.292;2022-09-20T00:25:17;2.10;;;2.00;;
22929;SDS011;11630;42.660;23.292;2022-09-20T00:27:47;1.93;;;1.80;;
22929;SDS011;11630;42.660;23.292;2022-09-20T00:30:17;2.40;;;2.20;;
22929;SDS011;11630;42.660;23.292;2022-09-20T00:32:48;6.57;;;2.10;;
22929;SDS011;11630;42.660;23.292;2022-09-20T00:35:19;1.90;;;1.80;;
22929;SDS011;11630;42.660;23.292;2022-09-20T00:37:50;1.73;;;1.63;;
22929;SDS011;11630;42.660;23.292;2022-09-20T00:40:21;2.03;;;1.90;;
22929;SDS011;11630;42.660;23.292;2022-09-20T00:42:55;2.73;;;1.70;;
22929;SDS011;11630;42.660;23.292;2022-09-20T00:45:27;2.00;;;1.90;;
22929;SDS011;11630;42.660;23.292;2022-09-20T00:48:04;3.10;;;1.90;;
22929;SDS011;11630;42.660;23.292;2022-09-20T00:50:45;1.20;;;1.20;;
22929;SDS011;11630;42.660;23.292;2022-09-20T00:53:19;1.20;;;1.20;;
22929;SDS011;11630;42.660;23.292;2022-09-20T00:55:59;1.40;;;1.30;;
22929;SDS011;11630;42.660;23.292;2022-09-20T00:58:30;1.63;;;1.53;;
22929;SDS011;11630;42.660;23.292;2022-09-20T01:01:03;1.60;;;1.50;;
22929;SDS011;11630;42.660;23.292;2022-09-20T01:03:35;1.70;;;1.60;;
22929;SDS011;11630;42.660;23.292;2022-09-20T01:06:09;1.90;;;1.80;;
22929;SDS011;11630;42.660;23.292;2022-09-20T01:08:43;1.70;;;1.60;;
22929;SDS011;11630;42.660;23.292;2022-09-20T01:11:14;4.70;;;1.90;;
22929;SDS011;11630;42.660;23.292;2022-09-20T01:13:45;2.37;;;1.70;;
22929;SDS011;11630;42.660;23.292;2022-09-20T01:16:15;1.77;;;1.67;;
22929;SDS011;11630;42.660;23.292;2022-09-20T01:18:47;1.77;;;1.67;;
22929;SDS011;11630;42.660;23.292;2022-09-20T01:21:19;1.60;;;1.50;;
22929;SDS011;11630;42.660;23.292;2022-09-20T01:24:01;1.80;;;1.70;;
22929;SDS011;11630;42.660;23.292;2022-09-20T01:31:59;1.83;;;1.73;;
22929;SDS011;11630;42.660;23.292;2022-09-20T01:37:13;1.80;;;1.70;;
22929;SDS011;11630;42.660;23.292;2022-09-20T01:40:02;1.40;;;1.40;;
22929;SDS011;11630;42.660;23.292;2022-09-20T01:42:34;1.90;;;1.80;;
22929;SDS011;11630;42.660;23.292;2022-09-20T01:45:21;1.70;;;1.60;;
22929;SDS011;11630;42.660;23.292;2022-09-20T01:48:02;1.90;;;1.80;;
22929;SDS011;11630;42.660;23.292;2022-09-20T02:07:39;1.90;;;1.80;;
22929;SDS011;11630;42.660;23.292;2022-09-20T02:13:05;2.73;;;1.90;;
22929;SDS011;11630;42.660;23.292;2022-09-20T02:15:55;1.80;;;1.70;;
22929;SDS011;11630;42.660;23.292;2022-09-20T02:29:16;1.93;;;1.83;;
22929;SDS011;11630;42.660;23.292;2022-09-20T02:40:35;2.97;;;2.30;;
22929;SDS011;11630;42.660;23.292;2022-09-20T02:48:43;2.00;;;1.90;;
22929;SDS011;11630;42.660;23.292;2022-09-20T02:57:32;2.57;;;2.37;;
22929;SDS011;11630;42.660;23.292;2022-09-20T03:00:19;2.57;;;2.40;;
22929;SDS011;11630;42.660;23.292;2022-09-20T03:08:37;2.37;;;2.23;;
22929;SDS011;11630;42.660;23.292;2022-09-20T03:16:50;3.10;;;2.90;;
22929;SDS011;11630;42.660;23.292;2022-09-20T03:19:27;2.20;;;2.10;;
22929;SDS011;11630;42.660;23.292;2022-09-20T03:30:52;5.37;;;3.57;;
22929;SDS011;11630;42.660;23.292;2022-09-20T03:39:36;2.13;;;1.93;;
22929;SDS011;11630;42.660;23.292;2022-09-20T03:42:24;2.63;;;2.23;;
22929;SDS011;11630;42.660;23.292;2022-09-20T03:48:04;2.23;;;2.13;;
22929;SDS011;11630;42.660;23.292;2022-09-20T03:53:52;2.07;;;1.97;;
22929;SDS011;11630;42.660;23.292;2022-09-20T03:56:36;2.07;;;1.97;;
22929;SDS011;11630;42.660;23.292;2022-09-20T03:59:35;2.37;;;1.90;;
22929;SDS011;11630;42.660;23.292;2022-09-20T04:04:51;1.93;;;1.83;;
22929;SDS011;11630;42.660;23.292;2022-09-20T04:13:35;5.63;;;2.20;;
22929;SDS011;11630;42.660;23.292;2022-09-20T04:16:09;2.27;;;2.07;;
22929;SDS011;11630;42.660;23.292;2022-09-20T04:18:48;5.73;;;2.40;;
22929;SDS011;11630;42.660;23.292;2022-09-20T04:21:37;2.50;;;2.30;;
22929;SDS011;11630;42.660;23.292;2022-09-20T04:26:46;2.50;;;2.30;;
22929;SDS011;11630;42.660;23.292;2022-09-20T04:29:24;3.83;;;1.90;;
22929;SDS011;11630;42.660;23.292;2022-09-20T04:32:02;2.97;;;2.77;;
22929;SDS011;11630;42.660;23.292;2022-09-20T04:34:39;4.27;;;1.90;;
22929;SDS011;11630;42.660;23.292;2022-09-20T04:37:31;2.27;;;2.10;;
22929;SDS011;11630;42.660;23.292;2022-09-20T04:40:18;1.90;;;1.80;;
22929;SDS011;11630;42.660;23.292;2022-09-20T04:46:02;3.73;;;2.60;;
22929;SDS011;11630;42.660;23.292;2022-09-20T04:48:51;9.23;;;3.33;;
22929;SDS011;11630;42.660;23.292;2022-09-20T04:54:25;3.80;;;2.90;;
22929;SDS011;11630;42.660;23.292;2022-09-20T05:02:29;2.40;;;2.20;;
22929;SDS011;11630;42.660;23.292;2022-09-20T05:25:46;3.13;;;1.93;;
22929;SDS011;11630;42.660;23.292;2022-09-20T05:28:33;2.10;;;2.00;;
22929;SDS011;11630;42.660;23.292;2022-09-20T05:31:10;2.07;;;1.87;;
22929;SDS011;11630;42.660;23.292;2022-09-20T05:33:49;2.20;;;1.53;;
22929;SDS011;11630;42.660;23.292;2022-09-20T05:36:35;2.27;;;1.80;;
22929;SDS011;11630;42.660;23.292;2022-09-20T05:39:20;2.37;;;2.13;;
22929;SDS011;11630;42.660;23.292;2022-09-20T05:41:53;3.70;;;2.10;;
22929;SDS011;11630;42.660;23.292;2022-09-20T05:47:23;4.13;;;2.03;;
22929;SDS011;11630;42.660;23.292;2022-09-20T05:53:23;2.10;;;1.90;;
22929;SDS011;11630;42.660;23.292;2022-09-20T05:55:59;1.83;;;1.70;;
22929;SDS011;11630;42.660;23.292;2022-09-20T06:01:24;2.03;;;1.73;;
22929;SDS011;11630;42.660;23.292;2022-09-20T06:06:48;4.10;;;1.97;;
22929;SDS011;11630;42.660;23.292;2022-09-20T06:18:12;6.93;;;2.07;;
22929;SDS011;11630;42.660;23.292;2022-09-20T06:20:50;1.77;;;1.63;;
22929;SDS011;11630;42.660;23.292;2022-09-20T06:23:39;4.23;;;1.80;;
22929;SDS011;11630;42.660;23.292;2022-09-20T06:26:15;2.27;;;1.67;;
22929;SDS011;11630;42.660;23.292;2022-09-20T06:28:46;5.20;;;1.50;;
22929;SDS011;11630;42.660;23.292;2022-09-20T06:31:17;3.40;;;1.60;;
22929;SDS011;11630;42.660;23.292;2022-09-20T06:33:53;1.53;;;1.43;;
22929;SDS011;11630;42.660;23.292;2022-09-20T06:36:27;1.50;;;1.40;;
22929;SDS011;11630;42.660;23.292;2022-09-20T06:42:34;3.47;;;2.53;;
22929;SDS011;11630;42.660;23.292;2022-09-20T06:45:04;1.63;;;1.53;;
22929;SDS011;11630;42.660;23.292;2022-09-20T06:47:34;2.00;;;1.70;;
22929;SDS011;11630;42.660;23.292;2022-09-20T06:50:05;3.70;;;1.90;;
22929;SDS011;11630;42.660;23.292;2022-09-20T06:52:38;1.80;;;1.67;;
22929;SDS011;11630;42.660;23.292;2022-09-20T06:55:12;1.73;;;1.63;;
22929;SDS011;11630;42.660;23.292;2022-09-20T06:57:41;3.53;;;1.90;;
22929;SDS011;11630;42.660;23.292;2022-09-20T07:00:13;1.57;;;1.47;;
22929;SDS011;11630;42.660;23.292;2022-09-20T07:02:46;2.13;;;1.20;;
22929;SDS011;11630;42.660;23.292;2022-09-20T07:05:21;1.23;;;1.23;;
22929;SDS011;11630;42.660;23.292;2022-09-20T07:07:57;2.33;;;1.27;;
22929;SDS011;11630;42.660;23.292;2022-09-20T07:10:28;3.73;;;1.50;;
22929;SDS011;11630;42.660;23.292;2022-09-20T07:12:59;2.90;;;1.70;;
22929;SDS011;11630;42.660;23.292;2022-09-20T07:15:31;1.90;;;1.30;;
22929;SDS011;11630;42.660;23.292;2022-09-20T07:18:04;1.63;;;1.37;;
22929;SDS011;11630;42.660;23.292;2022-09-20T07:20:34;1.30;;;1.20;;
22929;SDS011;11630;42.660;23.292;2022-09-20T07:23:04;1.27;;;1.17;;
22929;SDS011;11630;42.660;23.292;2022-09-20T07:25:34;0.97;;;0.97;;
22929;SDS011;11630;42.660;23.292;2022-09-20T07:28:05;1.13;;;1.07;;
22929;SDS011;11630;42.660;23.292;2022-09-20T07:30:36;1.93;;;1.30;;
22929;SDS011;11630;42.660;23.292;2022-09-20T07:33:07;2.10;;;1.75;;
22929;SDS011;11630;42.660;23.292;2022-09-20T07:35:38;1.60;;;1.50;;
22929;SDS011;11630;42.660;23.292;2022-09-20T07:38:09;1.50;;;1.40;;
22929;SDS011;11630;42.660;23.292;2022-09-20T07:40:40;4.83;;;1.30;;
22929;SDS011;11630;42.660;23.292;2022-09-20T07:43:11;3.20;;;1.80;;
22929;SDS011;11630;42.660;23.292;2022-09-20T07:45:42;1.83;;;1.73;;
22929;SDS011;11630;42.660;23.292;2022-09-20T07:48:12;4.47;;;1.60;;
22929;SDS011;11630;42.660;23.292;2022-09-20T07:50:49;3.43;;;1.60;;
22929;SDS011;11630;42.660;23.292;2022-09-20T07:53:21;4.07;;;2.10;;
22929;SDS011;11630;42.660;23.292;2022-09-20T07:55:58;1.50;;;1.20;;
22929;SDS011;11630;42.660;23.292;2022-09-20T07:58:29;1.13;;;0.80;;
22929;SDS011;11630;42.660;23.292;2022-09-20T08:01:03;8.70;;;1.50;;
22929;SDS011;11630;42.660;23.292;2022-09-20T08:03:34;1.33;;;1.23;;
22929;SDS011;11630;42.660;23.292;2022-09-20T08:06:06;1.00;;;1.00;;
22929;SDS011;11630;42.660;23.292;2022-09-20T08:08:38;1.43;;;1.33;;
22929;SDS011;11630;42.660;23.292;2022-09-20T08:11:13;0.90;;;0.90;;
22929;SDS011;11630;42.660;23.292;2022-09-20T08:13:44;2.57;;;1.53;;
22929;SDS011;11630;42.660;23.292;2022-09-20T08:16:15;1.07;;;1.00;;
22929;SDS011;11630;42.660;23.292;2022-09-20T08:18:48;3.40;;;1.17;;
22929;SDS011;11630;42.660;23.292;2022-09-20T08:21:32;1.07;;;1.00;;
22929;SDS011;11630;42.660;23.292;2022-09-20T08:24:03;0.80;;;0.80;;
22929;SDS011;11630;42.660;23.292;2022-09-20T08:26:34;2.33;;;1.00;;
22929;SDS011;11630;42.660;23.292;2022-09-20T08:29:04;2.03;;;1.27;;
22929;SDS011;11630;42.660;23.292;2022-09-20T08:31:36;1.60;;;1.10;;
22929;SDS011;11630;42.660;23.292;2022-09-20T08:34:08;1.20;;;1.10;;
22929;SDS011;11630;42.660;23.292;2022-09-20T08:36:41;5.80;;;1.30;;
22929;SDS011;11630;42.660;23.292;2022-09-20T08:39:15;0.90;;;0.90;;
22929;SDS011;11630;42.660;23.292;2022-09-20T08:41:50;4.27;;;1.20;;
22929;SDS011;11630;42.660;23.292;2022-09-20T08:44:26;1.40;;;1.20;;
22929;SDS011;11630;42.660;23.292;2022-09-20T08:47:18;0.70;;;0.70;;
22929;SDS011;11630;42.660;23.292;2022-09-20T08:49:47;1.00;;;1.00;;
22929;SDS011;11630;42.660;23.292;2022-09-20T08:52:24;1.10;;;1.00;;
22929;SDS011;11630;42.660;23.292;2022-09-20T08:55:11;1.40;;;1.00;;
22929;SDS011;11630;42.660;23.292;2022-09-20T08:57:38;1.57;;;1.00;;
22929;SDS011;11630;42.660;23.292;2022-09-20T09:00:18;8.03;;;1.40;;
22929;SDS011;11630;42.660;23.292;2022-09-20T09:02:53;15.20;;;2.37;;
22929;SDS011;11630;42.660;23.292;2022-09-20T09:05:44;3.30;;;1.30;;
22929;SDS011;11630;42.660;23.292;2022-09-20T09:08:21;1.90;;;0.97;;
22929;SDS011;11630;42.660;23.292;2022-09-20T09:10:55;0.80;;;0.80;;
22929;SDS011;11630;42.660;23.292;2022-09-20T09:13:41;1.27;;;1.17;;
22929;SDS011;11630;42.660;23.292;2022-09-20T09:16:16;1.00;;;1.00;;
22929;SDS011;11630;42.660;23.292;2022-09-20T09:18:48;2.80;;;1.00;;
22929;SDS011;11630;42.660;23.292;2022-09-20T09:21:23;6.67;;;1.33;;
22929;SDS011;11630;42.660;23.292;2022-09-20T09:26:43;1.10;;;1.00;;
22929;SDS011;11630;42.660;23.292;2022-09-20T09:29:16;1.63;;;1.27;;
22929;SDS011;11630;42.660;23.292;2022-09-20T09:31:51;1.10;;;1.10;;
22929;SDS011;11630;42.660;23.292;2022-09-20T09:34:32;0.60;;;0.60;;
22929;SDS011;11630;42.660;23.292;2022-09-20T09:36:57;1.13;;;0.90;;
22929;SDS011;11630;42.660;23.292;2022-09-20T09:39:32;1.27;;;0.90;;
22929;SDS011;11630;42.660;23.292;2022-09-20T09:43:04;0.70;;;0.70;;
22929;SDS011;11630;42.660;23.292;2022-09-20T09:44:47;1.80;;;0.70;;
22929;SDS011;11630;42.660;23.292;2022-09-20T09:47:25;1.27;;;1.03;;
22929;SDS011;11630;42.660;23.292;2022-09-20T09:49:57;3.50;;;1.87;;
22929;SDS011;11630;42.660;23.292;2022-09-20T09:52:28;1.00;;;1.00;;
22929;SDS011;11630;42.660;23.292;2022-09-20T09:54:59;0.97;;;0.93;;
22929;SDS011;11630;42.660;23.292;2022-09-20T09:57:52;0.87;;;0.87;;
22929;SDS011;11630;42.660;23.292;2022-09-20T10:00:24;0.97;;;0.97;;
22929;SDS011;11630;42.660;23.292;2022-09-20T10:03:03;1.77;;;1.20;;
22929;SDS011;11630;42.660;23.292;2022-09-20T10:09:05;2.47;;;1.33;;
22929;SDS011;11630;42.660;23.292;2022-09-20T10:11:42;4.37;;;0.87;;
22929;SDS011;11630;42.660;23.292;2022-09-20T10:14:33;1.10;;;0.90;;
22929;SDS011;11630;42.660;23.292;2022-09-20T10:34:37;2.77;;;1.37;;
22929;SDS011;11630;42.660;23.292;2022-09-20T10:43:14;1.43;;;1.07;;
22929;SDS011;11630;42.660;23.292;2022-09-20T10:45:52;2.60;;;1.10;;
22929;SDS011;11630;42.660;23.292;2022-09-20T10:48:44;1.40;;;1.30;;
22929;SDS011;11630;42.660;23.292;2022-09-20T10:54:16;2.13;;;1.53;;
22929;SDS011;11630;42.660;23.292;2022-09-20T10:56:43;1.07;;;1.07;;
22929;SDS011;11630;42.660;23.292;2022-09-20T11:05:25;1.53;;;1.43;;
22929;SDS011;11630;42.660;23.292;2022-09-20T11:08:10;11.67;;;1.73;;
22929;SDS011;11630;42.660;23.292;2022-09-20T11:10:46;1.93;;;1.20;;
22929;SDS011;11630;42.660;23.292;2022-09-20T11:16:41;1.10;;;1.10;;
22929;SDS011;11630;42.660;23.292;2022-09-20T11:19:34;0.90;;;0.90;;
22929;SDS011;11630;42.660;23.292;2022-09-20T11:22:18;1.23;;;1.00;;
22929;SDS011;11630;42.660;23.292;2022-09-20T11:25:03;1.50;;;1.40;;
22929;SDS011;11630;42.660;23.292;2022-09-20T11:27:54;2.73;;;0.97;;
22929;SDS011;11630;42.660;23.292;2022-09-20T11:30:24;1.87;;;1.13;;
22929;SDS011;11630;42.660;23.292;2022-09-20T11:38:20;3.77;;;1.07;;
22929;SDS011;11630;42.660;23.292;2022-09-20T11:41:40;1.10;;;1.00;;
22929;SDS011;11630;42.660;23.292;2022-09-20T11:43:44;0.87;;;0.87;;
22929;SDS011;11630;42.660;23.292;2022-09-20T11:46:30;1.13;;;1.13;;
22929;SDS011;11630;42.660;23.292;2022-09-20T11:57:27;0.90;;;0.90;;
22929;SDS011;11630;42.660;23.292;2022-09-20T11:59:59;0.73;;;0.73;;
22929;SDS011;11630;42.660;23.292;2022-09-20T12:05:23;0.80;;;0.80;;
22929;SDS011;11630;42.660;23.292;2022-09-20T12:08:06;0.87;;;0.87;;
22929;SDS011;11630;42.660;23.292;2022-09-20T12:10:44;0.90;;;0.90;;
22929;SDS011;11630;42.660;23.292;2022-09-20T12:13:17;0.83;;;0.77;;
22929;SDS011;11630;42.660;23.292;2022-09-20T12:15:56;2.90;;;0.90;;
22929;SDS011;11630;42.660;23.292;2022-09-20T12:21:22;0.90;;;0.90;;
22929;SDS011;11630;42.660;23.292;2022-09-20T12:23:59;2.90;;;0.90;;
22929;SDS011;11630;42.660;23.292;2022-09-20T12:26:35;1.03;;;0.90;;
22929;SDS011;11630;42.660;23.292;2022-09-20T12:32:01;0.60;;;0.60;;
22929;SDS011;11630;42.660;23.292;2022-09-20T12:34:36;0.60;;;0.60;;
22929;SDS011;11630;42.660;23.292;2022-09-20T12:37:20;0.67;;;0.67;;
22929;SDS011;11630;42.660;23.292;2022-09-20T12:39:49;7.53;;;1.10;;
22929;SDS011;11630;42.660;23.292;2022-09-20T12:45:04;2.90;;;1.10;;
22929;SDS011;11630;42.660;23.292;2022-09-20T12:47:35;2.83;;;1.10;;
22929;SDS011;11630;42.660;23.292;2022-09-20T12:50:12;1.13;;;1.00;;
22929;SDS011;11630;42.660;23.292;2022-09-20T12:52:58;1.23;;;1.00;;
22929;SDS011;11630;42.660;23.292;2022-09-20T12:58:25;1.40;;;1.03;;
22929;SDS011;11630;42.660;23.292;2022-09-20T13:03:44;1.10;;;1.03;;
22929;SDS011;11630;42.660;23.292;2022-09-20T13:11:54;3.60;;;1.50;;
22929;SDS011;11630;42.660;23.292;2022-09-20T13:14:33;4.93;;;1.00;;
22929;SDS011;11630;42.660;23.292;2022-09-20T13:17:15;7.07;;;1.37;;
22929;SDS011;11630;42.660;23.292;2022-09-20T13:19:49;2.23;;;1.50;;
22929;SDS011;11630;42.660;23.292;2022-09-20T13:22:21;1.63;;;0.70;;
22929;SDS011;11630;42.660;23.292;2022-09-20T13:24:55;3.07;;;0.80;;
22929;SDS011;11630;42.660;23.292;2022-09-20T13:27:34;0.90;;;0.90;;
22929;SDS011;11630;42.660;23.292;2022-09-20T13:30:13;2.83;;;1.40;;
22929;SDS011;11630;42.660;23.292;2022-09-20T13:32:48;1.93;;;1.20;;
22929;SDS011;11630;42.660;23.292;2022-09-20T13:35:20;0.83;;;0.80;;
22929;SDS011;11630;42.660;23.292;2022-09-20T13:37:56;1.10;;;0.77;;
22929;SDS011;11630;42.660;23.292;2022-09-20T13:40:40;3.00;;;1.30;;
22929;SDS011;11630;42.660;23.292;2022-09-20T13:46:08;0.67;;;0.67;;
22929;SDS011;11630;42.660;23.292;2022-09-20T13:48:46;1.93;;;0.80;;
22929;SDS011;11630;42.660;23.292;2022-09-20T13:51:24;4.97;;;1.40;;
22929;SDS011;11630;42.660;23.292;2022-09-20T13:54:15;0.93;;;0.93;;
22929;SDS011;11630;42.660;23.292;2022-09-20T13:56:48;0.80;;;0.80;;
22929;SDS011;11630;42.660;23.292;2022-09-20T13:59:19;0.70;;;0.70;;
22929;SDS011;11630;42.660;23.292;2022-09-20T14:01:52;5.43;;;1.03;;
22929;SDS011;11630;42.660;23.292;2022-09-20T14:04:23;0.70;;;0.63;;
22929;SDS011;11630;42.660;23.292;2022-09-20T14:06:56;1.30;;;1.00;;
22929;SDS011;11630;42.660;23.292;2022-09-20T14:09:28;1.80;;;1.00;;
22929;SDS011;11630;42.660;23.292;2022-09-20T14:12:02;0.90;;;0.90;;
22929;SDS011;11630;42.660;23.292;2022-09-20T14:14:34;3.90;;;1.03;;
22929;SDS011;11630;42.660;23.292;2022-09-20T14:17:10;5.70;;;1.40;;
22929;SDS011;11630;42.660;23.292;2022-09-20T14:19:41;1.13;;;0.70;;
22929;SDS011;11630;42.660;23.292;2022-09-20T14:22:16;0.87;;;0.73;;
22929;SDS011;11630;42.660;23.292;2022-09-20T14:25:01;7.40;;;1.07;;
22929;SDS011;11630;42.660;23.292;2022-09-20T14:27:29;1.30;;;0.90;;
22929;SDS011;11630;42.660;23.292;2022-09-20T14:29:59;0.80;;;0.80;;
22929;SDS011;11630;42.660;23.292;2022-09-20T14:32:37;1.00;;;1.00;;
22929;SDS011;11630;42.660;23.292;2022-09-20T14:35:16;3.03;;;0.70;;
22929;SDS011;11630;42.660;23.292;2022-09-20T14:37:48;0.80;;;0.80;;
22929;SDS011;11630;42.660;23.292;2022-09-20T14:40:27;3.63;;;1.07;;
22929;SDS011;11630;42.660;23.292;2022-09-20T14:43:04;6.43;;;1.43;;
22929;SDS011;11630;42.660;23.292;2022-09-20T14:45:32;0.90;;;0.90;;
22929;SDS011;11630;42.660;23.292;2022-09-20T14:50:49;3.10;;;1.10;;
22929;SDS011;11630;42.660;23.292;2022-09-20T14:53:34;1.57;;;1.40;;
22929;SDS011;11630;42.660;23.292;2022-09-20T15:01:29;0.80;;;0.80;;
22929;SDS011;11630;42.660;23.292;2022-09-20T15:06:49;1.00;;;1.00;;
22929;SDS011;11630;42.660;23.292;2022-09-20T15:09:21;2.33;;;1.00;;
22929;SDS011;11630;42.660;23.292;2022-09-20T15:12:12;2.03;;;1.10;;
22929;SDS011;11630;42.660;23.292;2022-09-20T15:14:36;1.27;;;1.10;;
22929;SDS011;11630;42.660;23.292;2022-09-20T15:17:08;1.47;;;1.20;;
22929;SDS011;11630;42.660;23.292;2022-09-20T15:19:41;3.33;;;2.00;;
22929;SDS011;11630;42.660;23.292;2022-09-20T15:22:12;11.63;;;1.30;;
22929;SDS011;11630;42.660;23.292;2022-09-20T15:24:43;1.10;;;1.00;;
22929;SDS011;11630;42.660;23.292;2022-09-20T15:27:13;1.97;;;1.80;;
22929;SDS011;11630;42.660;23.292;2022-09-20T15:29:44;3.20;;;1.43;;
22929;SDS011;11630;42.660;23.292;2022-09-20T15:32:14;2.27;;;1.70;;
22929;SDS011;11630;42.660;23.292;2022-09-20T15:34:45;2.30;;;1.30;;
22929;SDS011;11630;42.660;23.292;2022-09-20T15:37:16;2.77;;;1.20;;
22929;SDS011;11630;42.660;23.292;2022-09-20T15:39:47;6.47;;;1.70;;
22929;SDS011;11630;42.660;23.292;2022-09-20T15:42:18;2.57;;;1.30;;
22929;SDS011;11630;42.660;23.292;2022-09-20T15:44:48;2.17;;;1.50;;
22929;SDS011;11630;42.660;23.292;2022-09-20T15:47:19;5.23;;;2.10;;
22929;SDS011;11630;42.660;23.292;2022-09-20T15:49:50;4.40;;;1.77;;
22929;SDS011;11630;42.660;23.292;2022-09-20T15:52:21;2.57;;;1.60;;
22929;SDS011;11630;42.660;23.292;2022-09-20T15:54:52;2.87;;;1.57;;
22929;SDS011;11630;42.660;23.292;2022-09-20T15:57:23;1.77;;;1.67;;
22929;SDS011;11630;42.660;23.292;2022-09-20T15:59:53;1.60;;;1.50;;
22929;SDS011;11630;42.660;23.292;2022-09-20T16:02:23;1.10;;;1.10;;
22929;SDS011;11630;42.660;23.292;2022-09-20T16:04:54;1.77;;;1.20;;
22929;SDS011;11630;42.660;23.292;2022-09-20T16:07:25;2.43;;;1.73;;
22929;SDS011;11630;42.660;23.292;2022-09-20T16:09:54;1.90;;;1.33;;
22929;SDS011;11630;42.660;23.292;2022-09-20T16:12:27;1.60;;;1.50;;
22929;SDS011;11630;42.660;23.292;2022-09-20T16:14:58;2.40;;;1.47;;
22929;SDS011;11630;42.660;23.292;2022-09-20T16:17:32;4.13;;;2.03;;
22929;SDS011;11630;42.660;23.292;2022-09-20T16:20:18;1.60;;;1.50;;
22929;SDS011;11630;42.660;23.292;2022-09-20T16:22:49;3.63;;;2.23;;
22929;SDS011;11630;42.660;23.292;2022-09-20T16:25:20;3.23;;;2.23;;
22929;SDS011;11630;42.660;23.292;2022-09-20T16:27:50;5.67;;;2.33;;
22929;SDS011;11630;42.660;23.292;2022-09-20T16:30:21;7.40;;;2.40;;
22929;SDS011;11630;42.660;23.292;2022-09-20T16:32:52;1.93;;;1.83;;
22929;SDS011;11630;42.660;23.292;2022-09-20T16:35:23;6.17;;;1.93;;
22929;SDS011;11630;42.660;23.292;2022-09-20T16:37:53;2.13;;;1.67;;
22929;SDS011;11630;42.660;23.292;2022-09-20T16:40:24;5.17;;;1.80;;
22929;SDS011;11630;42.660;23.292;2022-09-20T16:42:55;2.20;;;1.70;;
22929;SDS011;11630;42.660;23.292;2022-09-20T16:45:26;1.70;;;1.60;;
22929;SDS011;11630;42.660;23.292;2022-09-20T16:47:57;3.10;;;1.80;;
22929;SDS011;11630;42.660;23.292;2022-09-20T16:50:28;5.20;;;1.93;;
22929;SDS011;11630;42.660;23.292;2022-09-20T16:52:59;6.10;;;2.53;;
22929;SDS011;11630;42.660;23.292;2022-09-20T16:55:29;3.67;;;2.30;;
22929;SDS011;11630;42.660;23.292;2022-09-20T16:58:00;2.97;;;2.00;;
22929;SDS011;11630;42.660;23.292;2022-09-20T17:00:30;1.60;;;1.50;;
22929;SDS011;11630;42.660;23.292;2022-09-20T17:03:02;3.07;;;1.90;;
22929;SDS011;11630;42.660;23.292;2022-09-20T17:05:36;2.43;;;2.23;;
22929;SDS011;11630;42.660;23.292;2022-09-20T17:08:07;2.00;;;1.83;;
22929;SDS011;11630;42.660;23.292;2022-09-20T17:10:37;5.43;;;2.23;;
22929;SDS011;11630;42.660;23.292;2022-09-20T17:13:07;2.27;;;2.07;;
22929;SDS011;11630;42.660;23.292;2022-09-20T17:15:38;1.77;;;1.67;;
22929;SDS011;11630;42.660;23.292;2022-09-20T17:18:09;2.17;;;1.97;;
22929;SDS011;11630;42.660;23.292;2022-09-20T17:20:41;4.10;;;2.37;;
22929;SDS011;11630;42.660;23.292;2022-09-20T17:23:11;2.47;;;2.27;;
22929;SDS011;11630;42.660;23.292;2022-09-20T17:25:42;3.80;;;2.50;;
22929;SDS011;11630;42.660;23.292;2022-09-20T17:28:16;3.87;;;2.27;;
22929;SDS011;11630;42.660;23.292;2022-09-20T17:30:48;2.40;;;2.20;;
22929;SDS011;11630;42.660;23.292;2022-09-20T17:33:19;7.23;;;2.50;;
22929;SDS011;11630;42.660;23.292;2022-09-20T17:35:50;5.33;;;2.40;;
22929;SDS011;11630;42.660;23.292;2022-09-20T17:38:21;2.80;;;2.60;;
22929;SDS011;11630;42.660;23.292;2022-09-20T17:41:06;14.17;;;2.30;;
22929;SDS011;11630;42.660;23.292;2022-09-20T17:43:37;2.27;;;1.93;;
22929;SDS011;11630;42.660;23.292;2022-09-20T17:46:12;6.00;;;2.20;;
22929;SDS011;11630;42.660;23.292;2022-09-20T17:48:51;4.37;;;2.47;;
22929;SDS011;11630;42.660;23.292;2022-09-20T17:51:23;4.00;;;2.97;;
22929;SDS011;11630;42.660;23.292;2022-09-20T17:53:56;3.17;;;2.67;;
22929;SDS011;11630;42.660;23.292;2022-09-20T17:56:27;5.50;;;2.83;;
22929;SDS011;11630;42.660;23.292;2022-09-20T17:59:01;4.17;;;3.30;;
22929;SDS011;11630;42.660;23.292;2022-09-20T18:01:32;3.80;;;2.70;;
22929;SDS011;11630;42.660;23.292;2022-09-20T18:04:03;3.83;;;3.43;;
22929;SDS011;11630;42.660;23.292;2022-09-20T18:06:39;8.70;;;4.73;;
22929;SDS011;11630;42.660;23.292;2022-09-20T18:09:13;2.63;;;2.43;;
22929;SDS011;11630;42.660;23.292;2022-09-20T18:11:46;4.60;;;2.53;;
22929;SDS011;11630;42.660;23.292;2022-09-20T18:14:20;3.07;;;2.33;;
22929;SDS011;11630;42.660;23.292;2022-09-20T18:17:01;2.83;;;2.20;;
22929;SDS011;11630;42.660;23.292;2022-09-20T18:19:29;2.67;;;1.83;;
22929;SDS011;11630;42.660;23.292;2022-09-20T18:22:00;3.00;;;2.13;;
22929;SDS011;11630;42.660;23.292;2022-09-20T18:24:32;2.43;;;1.97;;
22929;SDS011;11630;42.660;23.292;2022-09-20T18:27:03;4.20;;;2.23;;
22929;SDS011;11630;42.660;23.292;2022-09-20T18:29:34;3.73;;;2.10;;
22929;SDS011;11630;42.660;23.292;2022-09-20T18:32:04;2.30;;;2.10;;
22929;SDS011;11630;42.660;23.292;2022-09-20T18:34:35;2.47;;;1.90;;
22929;SDS011;11630;42.660;23.292;2022-09-20T18:37:06;4.60;;;1.83;;
22929;SDS011;11630;42.660;23.292;2022-09-20T18:39:38;1.90;;;1.80;;
22929;SDS011;11630;42.660;23.292;2022-09-20T18:42:08;2.03;;;1.93;;
22929;SDS011;11630;42.660;23.292;2022-09-20T18:44:41;1.77;;;1.67;;
22929;SDS011;11630;42.660;23.292;2022-09-20T18:47:13;1.90;;;1.80;;
22929;SDS011;11630;42.660;23.292;2022-09-20T18:49:44;1.93;;;1.83;;
22929;SDS011;11630;42.660;23.292;2022-09-20T18:52:15;1.90;;;1.80;;
22929;SDS011;11630;42.660;23.292;2022-09-20T18:54:46;2.83;;;1.93;;
22929;SDS011;11630;42.660;23.292;2022-09-20T18:57:16;1.70;;;1.60;;
22929;SDS011;11630;42.660;23.292;2022-09-20T18:59:47;3.80;;;1.87;;
22929;SDS011;11630;42.660;23.292;2022-09-20T19:02:21;5.53;;;2.10;;
22929;SDS011;11630;42.660;23.292;2022-09-20T19:05:02;2.10;;;1.87;;
22929;SDS011;11630;42.660;23.292;2022-09-20T19:10:26;7.50;;;2.70;;
22929;SDS011;11630;42.660;23.292;2022-09-20T19:13:00;2.87;;;2.27;;
22929;SDS011;11630;42.660;23.292;2022-09-20T19:15:38;5.70;;;2.50;;
22929;SDS011;11630;42.660;23.292;2022-09-20T19:26:59;3.53;;;3.13;;
22929;SDS011;11630;42.660;23.292;2022-09-20T19:29:29;6.90;;;3.20;;
22929;SDS011;11630;42.660;23.292;2022-09-20T19:32:02;5.63;;;3.63;;
22929;SDS011;11630;42.660;23.292;2022-09-20T19:34:34;4.60;;;3.03;;
22929;SDS011;11630;42.660;23.292;2022-09-20T19:43:14;3.03;;;2.83;;
22929;SDS011;11630;42.660;23.292;2022-09-20T19:48:38;3.93;;;3.03;;